Time;durP1;ratioP1;P1;durP2;ratioP2;P2;SDS_P1;SDS_P2;PMS_P1;PMS_P2;Temp;Humidity;BMP_temperature;BMP_pressure;BME280_temperature;BME280_humidity;BME280_pressure;Samples;Min_cycle;Max_cycle;Signal;HPM_P1;HPM_P2
2024/04/07 00:02:16;;;;;;;1.00;0.90;;;;;;;;;;5028848;28;20219;-57
2024/04/07 00:04:41;;;;;;;1.77;1.00;;;;;;;;;;5049274;28;20223;-59
2024/04/07 00:07:08;;;;;;;1.02;0.70;;;;;;;;;;5048820;28;20773;-59
2024/04/07 00:09:37;;;;;;;1.20;0.90;;;;;;;;;;5047732;28;20207;-59
2024/04/07 00:12:04;;;;;;;1.05;0.88;;;;;;;;;;5047700;28;20209;-59
2024/04/07 00:14:31;;;;;;;0.85;0.70;;;;;;;;;;5012116;28;20227;-59
2024/04/07 00:16:57;;;;;;;1.13;0.90;;;;;;;;;;5034168;28;20207;-59
2024/04/07 00:19:24;;;;;;;2.15;0.90;;;;;;;;;;5047627;28;20203;-59
2024/04/07 00:21:50;;;;;;;2.72;1.00;;;;;;;;;;5047464;28;20298;-58
2024/04/07 00:24:16;;;;;;;1.52;1.00;;;;;;;;;;5047348;28;20204;-59
2024/04/07 00:26:42;;;;;;;0.60;0.60;;;;;;;;;;5028071;28;20234;-59
2024/04/07 00:29:08;;;;;;;1.17;0.75;;;;;;;;;;5047479;28;20204;-59
2024/04/07 00:31:36;;;;;;;0.80;0.80;;;;;;;;;;5047659;28;20218;-59
2024/04/07 00:34:02;;;;;;;0.70;0.70;;;;;;;;;;5047370;28;20195;-59
2024/04/07 00:36:28;;;;;;;2.38;1.25;;;;;;;;;;5052490;28;20199;-59
2024/04/07 00:38:54;;;;;;;1.20;0.90;;;;;;;;;;5029762;28;20234;-59
2024/04/07 00:41:20;;;;;;;1.67;0.75;;;;;;;;;;5067193;28;20266;-59
2024/04/07 00:43:46;;;;;;;1.80;0.88;;;;;;;;;;5066779;28;20202;-59
2024/04/07 00:46:12;;;;;;;1.20;0.60;;;;;;;;;;5065744;28;20620;-59
2024/04/07 00:48:39;;;;;;;0.77;0.73;;;;;;;;;;5067020;28;20195;-58
2024/04/07 00:51:06;;;;;;;0.75;0.70;;;;;;;;;;5067315;28;20207;-60
2024/04/07 00:53:32;;;;;;;1.23;0.85;;;;;;;;;;5066671;28;20289;-59
2024/04/07 00:55:58;;;;;;;2.05;1.20;;;;;;;;;;5064904;28;20322;-59
2024/04/07 00:58:24;;;;;;;1.58;0.80;;;;;;;;;;5066803;28;20206;-59
2024/04/07 01:00:51;;;;;;;0.70;0.70;;;;;;;;;;5066497;28;20198;-59
2024/04/07 01:03:16;;;;;;;1.40;0.95;;;;;;;;;;5066209;28;20687;-59
2024/04/07 01:05:45;;;;;;;0.93;0.85;;;;;;;;;;5030992;28;20205;-59
2024/04/07 01:08:11;;;;;;;1.85;0.88;;;;;;;;;;5058363;28;20212;-59
2024/04/07 01:10:38;;;;;;;1.02;0.90;;;;;;;;;;5046918;28;20200;-59
2024/04/07 01:13:06;;;;;;;1.88;1.23;;;;;;;;;;5046509;28;20887;-59
2024/04/07 01:15:32;;;;;;;2.75;1.35;;;;;;;;;;5046471;28;20253;-59
2024/04/07 01:17:58;;;;;;;1.40;1.15;;;;;;;;;;5011851;28;20199;-59
2024/04/07 01:20:25;;;;;;;1.20;0.93;;;;;;;;;;5066021;28;20695;-59
2024/04/07 01:22:51;;;;;;;1.65;0.95;;;;;;;;;;5066116;28;20202;-58
2024/04/07 01:25:19;;;;;;;1.20;0.95;;;;;;;;;;5065810;28;20213;-59
2024/04/07 01:27:46;;;;;;;0.75;0.70;;;;;;;;;;5066254;28;20245;-59
2024/04/07 01:30:12;;;;;;;0.82;0.80;;;;;;;;;;5064424;28;20195;-59
2024/04/07 01:32:39;;;;;;;1.60;1.08;;;;;;;;;;5065699;28;20195;-58
2024/04/07 01:35:04;;;;;;;1.33;1.00;;;;;;;;;;5047002;28;20227;-59
2024/04/07 01:37:31;;;;;;;1.00;0.90;;;;;;;;;;5048588;28;20202;-59
2024/04/07 01:40:02;;;;;;;2.15;1.00;;;;;;;;;;5059308;28;20214;-59
2024/04/07 01:42:30;;;;;;;0.90;0.82;;;;;;;;;;5065940;28;20227;-58
2024/04/07 01:44:56;;;;;;;1.67;1.02;;;;;;;;;;5066048;28;20202;-58
2024/04/07 01:47:22;;;;;;;0.93;0.90;;;;;;;;;;5065594;28;20202;-59
2024/04/07 01:49:48;;;;;;;1.65;0.98;;;;;;;;;;5047479;28;20227;-58
2024/04/07 01:52:15;;;;;;;1.23;1.00;;;;;;;;;;5045907;28;20253;-58
2024/04/07 01:54:40;;;;;;;1.30;1.00;;;;;;;;;;5045903;28;20228;-59
2024/04/07 01:57:07;;;;;;;1.13;1.05;;;;;;;;;;5046027;28;20514;-59
2024/04/07 01:59:34;;;;;;;1.10;1.00;;;;;;;;;;5047283;28;20249;-57
2024/04/07 02:02:01;;;;;;;1.35;1.25;;;;;;;;;;5029890;28;20710;-59
2024/04/07 02:04:28;;;;;;;1.15;1.05;;;;;;;;;;5066077;28;20196;-59
2024/04/07 02:06:54;;;;;;;1.27;1.08;;;;;;;;;;5063345;28;20234;-59
2024/04/07 02:09:20;;;;;;;1.75;1.02;;;;;;;;;;5051748;28;20207;-59
2024/04/07 02:11:47;;;;;;;4.43;1.20;;;;;;;;;;5045995;28;20211;-59
2024/04/07 02:14:12;;;;;;;1.45;1.10;;;;;;;;;;5045798;28;20204;-59
2024/04/07 02:16:40;;;;;;;1.13;0.98;;;;;;;;;;5046552;28;20246;-59
2024/04/07 02:19:06;;;;;;;1.42;0.95;;;;;;;;;;5045865;28;20611;-59
2024/04/07 02:21:33;;;;;;;1.52;1.27;;;;;;;;;;5045489;28;20219;-60
2024/04/07 02:23:59;;;;;;;1.13;1.00;;;;;;;;;;5045957;28;20583;-59
2024/04/07 02:26:26;;;;;;;1.10;0.98;;;;;;;;;;5045750;28;20211;-58
2024/04/07 02:28:52;;;;;;;1.35;1.15;;;;;;;;;;5046974;28;20220;-59
2024/04/07 02:31:18;;;;;;;1.30;1.20;;;;;;;;;;5045724;28;20312;-58
2024/04/07 02:33:46;;;;;;;2.50;1.05;;;;;;;;;;5011344;28;20194;-59
2024/04/07 02:36:12;;;;;;;2.45;1.30;;;;;;;;;;5045706;28;20317;-59
2024/04/07 02:38:38;;;;;;;1.58;1.10;;;;;;;;;;5045691;28;20204;-59
2024/04/07 02:41:05;;;;;;;1.30;0.80;;;;;;;;;;5045568;28;20698;-59
2024/04/07 02:43:30;;;;;;;1.13;0.90;;;;;;;;;;5045810;28;20246;-60
2024/04/07 02:48:42;;;;;;;2.85;1.33;;;;;;;;;;5015811;28;20703;-59
2024/04/07 02:51:09;;;;;;;2.92;1.35;;;;;;;;;;5045300;28;20204;-58
2024/04/07 02:53:36;;;;;;;2.03;1.73;;;;;;;;;;5045364;28;20281;-59
2024/04/07 02:56:02;;;;;;;1.75;1.65;;;;;;;;;;5046552;28;20731;-59
2024/04/07 02:58:29;;;;;;;1.65;1.55;;;;;;;;;;5045076;28;20235;-58
2024/04/07 03:01:01;;;;;;;1.60;1.33;;;;;;;;;;5046521;28;20195;-58
2024/04/07 03:03:28;;;;;;;3.35;1.42;;;;;;;;;;5045710;28;20272;-59
2024/04/07 03:05:53;;;;;;;1.33;1.10;;;;;;;;;;5045081;28;20211;-59
2024/04/07 03:08:21;;;;;;;1.63;1.40;;;;;;;;;;5010066;28;20212;-59
2024/04/07 03:10:54;;;;;;;0.80;0.80;;;;;;;;;;5010032;28;20242;-59
2024/04/07 03:13:21;;;;;;;1.10;1.00;;;;;;;;;;5063663;28;20214;-59
2024/04/07 03:15:48;;;;;;;1.52;0.93;;;;;;;;;;5065400;28;20263;-59
2024/04/07 03:18:14;;;;;;;1.92;1.35;;;;;;;;;;5053735;28;20203;-59
2024/04/07 03:20:40;;;;;;;1.60;1.23;;;;;;;;;;5063211;28;20195;-59
2024/04/07 03:23:07;;;;;;;1.33;1.20;;;;;;;;;;5068659;28;20297;-60
2024/04/07 03:25:34;;;;;;;1.58;1.33;;;;;;;;;;5049784;28;20203;-59
2024/04/07 03:28:01;;;;;;;1.15;0.98;;;;;;;;;;5068515;28;20307;-60
2024/04/07 03:30:26;;;;;;;2.05;1.33;;;;;;;;;;5067136;28;20206;-59
2024/04/07 03:32:53;;;;;;;2.40;1.35;;;;;;;;;;5068074;28;20207;-59
2024/04/07 03:35:18;;;;;;;3.42;1.50;;;;;;;;;;5068357;28;20234;-59
2024/04/07 03:37:45;;;;;;;2.60;1.38;;;;;;;;;;5068671;28;20209;-59
2024/04/07 03:40:12;;;;;;;3.03;1.60;;;;;;;;;;5068581;28;20765;-59
2024/04/07 03:42:41;;;;;;;1.80;1.20;;;;;;;;;;5066663;28;20952;-59
2024/04/07 03:45:09;;;;;;;2.97;2.60;;;;;;;;;;5049200;28;20198;-59
2024/04/07 03:47:36;;;;;;;6.13;3.15;;;;;;;;;;5068049;28;20207;-59
2024/04/07 03:50:03;;;;;;;4.90;3.00;;;;;;;;;;5067936;28;20566;-59
2024/04/07 03:52:28;;;;;;;2.75;2.00;;;;;;;;;;5068445;28;20201;-59
2024/04/07 03:54:55;;;;;;;5.28;2.28;;;;;;;;;;5064559;28;20659;-59
2024/04/07 03:57:21;;;;;;;3.05;2.30;;;;;;;;;;5048695;28;20200;-59
2024/04/07 03:59:49;;;;;;;4.78;2.33;;;;;;;;;;5048795;28;20595;-58
2024/04/07 04:02:20;;;;;;;3.00;2.65;;;;;;;;;;5048613;28;20219;-59
2024/04/07 04:04:47;;;;;;;3.90;2.50;;;;;;;;;;5047783;28;20318;-58
2024/04/07 04:07:12;;;;;;;2.60;2.22;;;;;;;;;;5050868;28;20694;-59
2024/04/07 04:09:39;;;;;;;2.72;2.35;;;;;;;;;;5067557;28;20199;-58
2024/04/07 04:12:06;;;;;;;2.85;2.20;;;;;;;;;;5067834;28;20199;-58
2024/04/07 04:14:32;;;;;;;3.00;2.72;;;;;;;;;;5067854;28;20676;-59
2024/04/07 04:17:00;;;;;;;3.33;2.50;;;;;;;;;;5066080;28;20237;-57
2024/04/07 04:19:26;;;;;;;3.10;2.78;;;;;;;;;;5068135;28;20226;-59
2024/04/07 04:21:52;;;;;;;2.33;2.15;;;;;;;;;;5067180;28;20751;-58
2024/04/07 04:24:18;;;;;;;1.92;1.80;;;;;;;;;;5051014;28;20200;-59
2024/04/07 04:26:45;;;;;;;2.30;2.10;;;;;;;;;;5047425;28;20269;-59
2024/04/07 04:29:13;;;;;;;1.90;1.65;;;;;;;;;;5058387;28;20213;-58
2024/04/07 04:31:39;;;;;;;4.03;1.98;;;;;;;;;;5066695;28;20209;-59
2024/04/07 04:34:06;;;;;;;2.40;2.20;;;;;;;;;;5017584;28;20211;-59
2024/04/07 04:36:33;;;;;;;3.03;2.50;;;;;;;;;;5047255;28;20788;-60
2024/04/07 04:38:58;;;;;;;3.65;2.70;;;;;;;;;;5048144;28;20204;-59
2024/04/07 04:41:25;;;;;;;2.40;2.20;;;;;;;;;;5046933;28;20241;-59
2024/04/07 04:43:51;;;;;;;2.08;1.83;;;;;;;;;;5046771;28;20200;-59
2024/04/07 04:46:17;;;;;;;1.63;1.48;;;;;;;;;;5048146;28;20211;-59
2024/04/07 04:48:43;;;;;;;3.45;2.20;;;;;;;;;;5046800;28;20207;-59
2024/04/07 04:51:11;;;;;;;2.53;2.00;;;;;;;;;;5047179;28;20207;-59
2024/04/07 04:53:37;;;;;;;4.25;1.73;;;;;;;;;;5046952;28;20207;-58
2024/04/07 04:56:04;;;;;;;2.38;1.40;;;;;;;;;;5047007;28;20219;-59
2024/04/07 04:58:30;;;;;;;2.10;1.23;;;;;;;;;;5013378;28;20207;-58
2024/04/07 05:00:57;;;;;;;3.10;1.50;;;;;;;;;;5046522;28;20982;-58
2024/04/07 05:03:23;;;;;;;2.20;1.42;;;;;;;;;;5047005;28;20223;-59
2024/04/07 05:05:51;;;;;;;2.20;1.48;;;;;;;;;;5046973;28;20206;-58
2024/04/07 05:08:18;;;;;;;1.33;1.15;;;;;;;;;;5046823;28;20199;-58
2024/04/07 05:10:44;;;;;;;2.03;1.75;;;;;;;;;;5046776;28;20202;-59
2024/04/07 05:13:10;;;;;;;2.35;1.52;;;;;;;;;;5046334;28;20669;-58
2024/04/07 05:15:37;;;;;;;1.60;1.33;;;;;;;;;;5046135;28;20233;-58
2024/04/07 05:18:03;;;;;;;3.25;1.83;;;;;;;;;;5046459;28;20222;-58
2024/04/07 05:20:29;;;;;;;1.90;1.30;;;;;;;;;;5010769;28;20219;-58
2024/04/07 05:22:56;;;;;;;2.75;1.45;;;;;;;;;;5046171;28;20203;-58
2024/04/07 05:25:25;;;;;;;1.35;1.00;;;;;;;;;;5046278;28;20855;-58
2024/04/07 05:27:52;;;;;;;2.25;1.83;;;;;;;;;;5045648;28;20215;-58
2024/04/07 05:30:18;;;;;;;3.35;1.70;;;;;;;;;;5046554;28;20257;-58
2024/04/07 05:32:45;;;;;;;2.60;1.60;;;;;;;;;;5046122;28;20196;-58
2024/04/07 05:35:10;;;;;;;1.92;1.20;;;;;;;;;;5046419;28;20206;-57
2024/04/07 05:37:37;;;;;;;2.55;1.70;;;;;;;;;;5045873;28;20200;-56
2024/04/07 05:40:05;;;;;;;2.17;1.60;;;;;;;;;;5046429;28;20289;-56
2024/04/07 05:42:33;;;;;;;1.88;1.60;;;;;;;;;;5044721;28;20660;-56
2024/04/07 05:44:58;;;;;;;2.80;1.40;;;;;;;;;;5045894;28;20191;-54
2024/04/07 05:47:25;;;;;;;1.40;1.30;;;;;;;;;;5044930;28;20206;-56
2024/04/07 05:49:51;;;;;;;1.63;1.40;;;;;;;;;;5045480;28;20568;-54
2024/04/07 05:52:17;;;;;;;1.55;1.40;;;;;;;;;;5044803;28;20199;-54
2024/04/07 05:54:43;;;;;;;2.40;1.30;;;;;;;;;;5010607;28;20200;-56
2024/04/07 05:57:10;;;;;;;1.50;1.40;;;;;;;;;;5045751;28;20231;-56
2024/04/07 05:59:37;;;;;;;1.50;1.38;;;;;;;;;;5045620;28;20200;-53
2024/04/07 06:02:03;;;;;;;2.15;1.30;;;;;;;;;;5058950;28;20203;-56
2024/04/07 06:04:29;;;;;;;2.45;1.20;;;;;;;;;;5065970;28;20213;-56
2024/04/07 06:06:56;;;;;;;2.30;1.70;;;;;;;;;;5033802;28;20634;-54
2024/04/07 06:09:22;;;;;;;2.83;1.77;;;;;;;;;;5026603;28;20203;-56
2024/04/07 06:11:48;;;;;;;1.67;1.58;;;;;;;;;;5046734;28;20207;-57
2024/04/07 06:14:14;;;;;;;3.03;1.88;;;;;;;;;;5045888;28;20206;-58
2024/04/07 06:16:42;;;;;;;1.40;1.30;;;;;;;;;;5046708;28;20215;-56
2024/04/07 06:19:08;;;;;;;2.70;1.75;;;;;;;;;;5059519;28;20950;-55
2024/04/07 06:21:34;;;;;;;1.88;1.58;;;;;;;;;;5064138;28;20202;-56
2024/04/07 06:24:00;;;;;;;2.05;1.30;;;;;;;;;;5058321;28;20192;-56
2024/04/07 06:26:27;;;;;;;1.60;1.40;;;;;;;;;;5055777;28;20202;-57
2024/04/07 06:28:52;;;;;;;3.97;1.67;;;;;;;;;;5054510;28;20223;-57
2024/04/07 06:31:19;;;;;;;1.60;1.50;;;;;;;;;;5019448;28;20204;-55
2024/04/07 06:33:46;;;;;;;4.35;1.50;;;;;;;;;;5055654;28;20667;-56
2024/04/07 06:36:12;;;;;;;1.33;1.20;;;;;;;;;;5057598;28;20280;-57
2024/04/07 06:38:38;;;;;;;2.85;1.33;;;;;;;;;;5054465;28;20199;-55
2024/04/07 06:41:05;;;;;;;3.15;1.63;;;;;;;;;;5053741;28;20261;-57
2024/04/07 06:43:34;;;;;;;1.48;1.38;;;;;;;;;;5065622;28;20646;-57
2024/04/07 06:45:59;;;;;;;1.30;1.10;;;;;;;;;;5056894;28;20198;-57
2024/04/07 06:48:26;;;;;;;3.05;1.30;;;;;;;;;;5046513;28;20207;-57
2024/04/07 06:50:53;;;;;;;1.20;1.10;;;;;;;;;;5045061;28;20203;-57
2024/04/07 06:53:20;;;;;;;1.10;1.00;;;;;;;;;;5046313;28;20338;-57
2024/04/07 06:55:46;;;;;;;1.65;0.90;;;;;;;;;;5048982;28;20227;-57
2024/04/07 06:58:12;;;;;;;0.80;0.80;;;;;;;;;;5056809;28;20205;-57
2024/04/07 07:00:39;;;;;;;1.38;0.98;;;;;;;;;;5059821;28;20207;-56
2024/04/07 07:03:05;;;;;;;1.15;1.05;;;;;;;;;;5057419;28;20284;-57
2024/04/07 07:05:31;;;;;;;2.92;1.17;;;;;;;;;;5058647;28;20191;-57
2024/04/07 07:07:59;;;;;;;1.65;0.80;;;;;;;;;;5057807;28;20195;-57
2024/04/07 07:10:25;;;;;;;1.92;1.10;;;;;;;;;;5030585;28;20206;-57
2024/04/07 07:12:51;;;;;;;1.42;1.20;;;;;;;;;;5058410;28;20587;-56
2024/04/07 07:15:17;;;;;;;1.27;1.17;;;;;;;;;;5059369;28;20587;-58
2024/04/07 07:17:44;;;;;;;3.88;1.40;;;;;;;;;;5057331;28;20216;-57
2024/04/07 07:20:10;;;;;;;1.27;1.10;;;;;;;;;;5056489;28;20206;-58
2024/04/07 07:22:37;;;;;;;1.88;1.48;;;;;;;;;;5063911;28;20264;-56
2024/04/07 07:25:05;;;;;;;1.38;1.20;;;;;;;;;;5033260;28;20205;-61
2024/04/07 07:27:32;;;;;;;2.08;1.50;;;;;;;;;;5052419;28;20727;-61
2024/04/07 07:29:58;;;;;;;1.65;1.42;;;;;;;;;;5055181;28;20273;-61
2024/04/07 07:32:24;;;;;;;2.28;1.40;;;;;;;;;;5056821;28;20674;-61
2024/04/07 07:34:50;;;;;;;1.80;1.20;;;;;;;;;;5062688;28;20202;-60
2024/04/07 07:37:16;;;;;;;1.13;1.02;;;;;;;;;;5068061;28;20226;-60
2024/04/07 07:39:42;;;;;;;2.47;1.42;;;;;;;;;;5068188;28;20284;-59
2024/04/07 07:42:10;;;;;;;2.33;1.15;;;;;;;;;;5062791;28;20885;-60
2024/04/07 07:44:36;;;;;;;1.33;1.23;;;;;;;;;;5059968;28;20199;-61
2024/04/07 07:47:03;;;;;;;1.55;0.93;;;;;;;;;;5061553;28;20256;-60
2024/04/07 07:49:29;;;;;;;1.48;1.10;;;;;;;;;;5067725;28;20222;-61
2024/04/07 07:51:55;;;;;;;2.40;2.17;;;;;;;;;;5054478;28;20210;-61
2024/04/07 07:54:21;;;;;;;2.75;1.77;;;;;;;;;;5056586;28;20234;-61
2024/04/07 07:56:48;;;;;;;1.98;1.50;;;;;;;;;;5060596;28;20380;-61
2024/04/07 07:59:15;;;;;;;1.45;1.35;;;;;;;;;;5067408;28;20202;-60
2024/04/07 08:01:42;;;;;;;1.20;1.10;;;;;;;;;;5057696;28;20196;-59
2024/04/07 08:04:08;;;;;;;1.70;1.60;;;;;;;;;;5055240;28;20200;-59
2024/04/07 08:06:35;;;;;;;1.95;1.40;;;;;;;;;;5057426;28;20706;-59
2024/04/07 08:09:00;;;;;;;1.40;1.30;;;;;;;;;;5055922;28;20203;-60
2024/04/07 08:11:27;;;;;;;1.30;1.15;;;;;;;;;;5062658;28;20377;-59
2024/04/07 08:13:54;;;;;;;1.33;1.10;;;;;;;;;;5029379;28;20357;-60
2024/04/07 08:16:23;;;;;;;1.20;1.10;;;;;;;;;;5066969;28;20599;-59
2024/04/07 08:18:49;;;;;;;1.20;1.10;;;;;;;;;;5050421;28;20206;-60
2024/04/07 08:21:16;;;;;;;0.90;0.80;;;;;;;;;;5048358;28;20294;-61
2024/04/07 08:23:43;;;;;;;1.20;0.93;;;;;;;;;;5024331;28;20200;-59
2024/04/07 08:26:10;;;;;;;1.63;1.10;;;;;;;;;;5056178;28;20257;-59
2024/04/07 08:28:36;;;;;;;1.45;1.02;;;;;;;;;;5059485;28;20225;-59
2024/04/07 08:31:03;;;;;;;1.42;1.13;;;;;;;;;;5056618;28;20204;-59
2024/04/07 08:33:31;;;;;;;1.45;0.82;;;;;;;;;;5022135;28;20206;-60
2024/04/07 08:35:58;;;;;;;1.98;1.50;;;;;;;;;;5058969;28;20251;-60
2024/04/07 08:38:24;;;;;;;1.45;1.35;;;;;;;;;;5053206;28;20202;-60
2024/04/07 08:40:50;;;;;;;2.55;1.60;;;;;;;;;;5057847;28;20599;-61
2024/04/07 08:43:18;;;;;;;1.25;1.15;;;;;;;;;;5059323;28;20231;-60
2024/04/07 08:45:44;;;;;;;2.28;1.67;;;;;;;;;;5067172;28;20564;-60
2024/04/07 08:48:12;;;;;;;2.15;1.17;;;;;;;;;;5057371;28;20341;-62
2024/04/07 08:50:40;;;;;;;1.63;1.38;;;;;;;;;;5066926;28;20667;-61
2024/04/07 08:53:08;;;;;;;2.20;1.45;;;;;;;;;;5066897;28;20191;-61
2024/04/07 08:55:34;;;;;;;1.88;1.70;;;;;;;;;;5066739;28;20206;-60
2024/04/07 08:58:01;;;;;;;2.28;1.50;;;;;;;;;;5066415;28;20226;-61
2024/04/07 09:00:28;;;;;;;0.93;0.90;;;;;;;;;;5052843;28;20977;-61
2024/04/07 09:02:56;;;;;;;0.70;0.70;;;;;;;;;;5052801;28;20680;-60
2024/04/07 09:05:21;;;;;;;0.85;0.85;;;;;;;;;;5057559;28;20877;-60
2024/04/07 09:07:49;;;;;;;2.22;0.80;;;;;;;;;;5024083;28;20203;-60
2024/04/07 09:10:15;;;;;;;1.38;1.10;;;;;;;;;;5030698;28;20195;-55
2024/04/07 09:12:42;;;;;;;0.70;0.70;;;;;;;;;;5057928;28;20282;-55
2024/04/07 09:15:08;;;;;;;7.68;6.88;;;;;;;;;;5058745;28;20721;-59
2024/04/07 09:17:35;;;;;;;1.35;1.10;;;;;;;;;;5064823;28;20248;-57
2024/04/07 09:20:01;;;;;;;1.23;1.00;;;;;;;;;;5064298;28;20198;-56
2024/04/07 09:22:27;;;;;;;0.80;0.80;;;;;;;;;;5066181;28;20279;-56
2024/04/07 09:24:59;;;;;;;0.77;0.60;;;;;;;;;;5030373;28;20191;-56
2024/04/07 09:27:26;;;;;;;2.88;2.47;;;;;;;;;;5046920;28;20284;-55
2024/04/07 09:29:51;;;;;;;2.22;1.30;;;;;;;;;;5054343;28;20257;-57
2024/04/07 09:32:18;;;;;;;1.95;1.50;;;;;;;;;;5065218;28;20203;-53
2024/04/07 09:34:48;;;;;;;0.95;0.85;;;;;;;;;;5065753;28;20281;-57
2024/04/07 09:37:17;;;;;;;10.02;9.13;;;;;;;;;;5066074;28;20231;-43
2024/04/07 09:39:43;;;;;;;7.82;5.82;;;;;;;;;;5065977;28;20195;-61
2024/04/07 09:42:12;;;;;;;5.20;4.18;;;;;;;;;;5060299;28;20233;-65
2024/04/07 09:44:40;;;;;;;2.60;1.75;;;;;;;;;;5058850;28;20207;-63
2024/04/07 09:47:09;;;;;;;2.05;1.95;;;;;;;;;;5062189;28;20199;-64
2024/04/07 09:49:38;;;;;;;6.70;6.20;;;;;;;;;;5069094;28;20740;-62
2024/04/07 09:52:07;;;;;;;4.07;2.80;;;;;;;;;;5072803;28;20206;-64
2024/04/07 09:54:39;;;;;;;1.90;1.70;;;;;;;;;;5072421;28;20199;-53
2024/04/07 09:57:07;;;;;;;1.65;1.50;;;;;;;;;;5073356;28;20786;-64
2024/04/07 09:59:34;;;;;;;1.20;1.10;;;;;;;;;;5070901;28;20198;-68
2024/04/07 10:02:01;;;;;;;4.35;3.95;;;;;;;;;;5070721;28;20671;-67
2024/04/07 10:04:27;;;;;;;34.58;26.00;;;;;;;;;;5069234;28;20198;-66
2024/04/07 10:06:54;;;;;;;164.15;144.27;;;;;;;;;;5076118;28;20198;-67
2024/04/07 10:09:20;;;;;;;122.97;103.97;;;;;;;;;;5070855;28;20302;-66
2024/04/07 10:11:50;;;;;;;93.32;77.88;;;;;;;;;;5067963;28;20278;-65
2024/04/07 10:14:15;;;;;;;71.70;64.15;;;;;;;;;;5070826;28;20213;-63
2024/04/07 10:16:45;;;;;;;81.15;72.20;;;;;;;;;;5073338;28;20304;-65
2024/04/07 10:19:12;;;;;;;60.55;54.13;;;;;;;;;;5074004;28;20206;-65
2024/04/07 10:21:39;;;;;;;71.80;64.80;;;;;;;;;;5071055;28;20926;-65
2024/04/07 10:24:06;;;;;;;46.97;42.28;;;;;;;;;;5068825;28;20229;-65
2024/04/07 10:26:33;;;;;;;15.70;14.27;;;;;;;;;;5038801;28;20942;-66
2024/04/07 10:28:59;;;;;;;8.52;7.82;;;;;;;;;;5074030;28;20211;-66
2024/04/07 10:31:26;;;;;;;2.90;2.60;;;;;;;;;;5071708;28;20560;-51
2024/04/07 10:33:53;;;;;;;2.53;2.33;;;;;;;;;;5076622;28;20217;-46
2024/04/07 10:36:21;;;;;;;33.78;30.80;;;;;;;;;;5069350;28;20199;-47
2024/04/07 10:38:49;;;;;;;21.67;19.58;;;;;;;;;;5078459;28;20206;-49
2024/04/07 10:41:17;;;;;;;6.55;5.95;;;;;;;;;;5061175;28;20210;-48
2024/04/07 10:43:43;;;;;;;8.20;7.45;;;;;;;;;;5063508;28;20214;-48
2024/04/07 10:46:10;;;;;;;2.67;2.33;;;;;;;;;;5070680;28;20190;-47
2024/04/07 10:48:36;;;;;;;3.20;2.90;;;;;;;;;;5052359;28;20210;-47
2024/04/07 10:51:06;;;;;;;19.30;17.38;;;;;;;;;;5067043;28;20191;-48
2024/04/07 10:53:32;;;;;;;7.90;7.20;;;;;;;;;;5059678;28;20202;-48
2024/04/07 10:55:58;;;;;;;6.13;5.40;;;;;;;;;;5072454;28;20259;-48
2024/04/07 10:58:24;;;;;;;2.97;2.78;;;;;;;;;;5081200;28;20232;-46
2024/04/07 11:00:51;;;;;;;4.05;3.65;;;;;;;;;;5056265;28;20202;-47
2024/04/07 11:03:16;;;;;;;3.17;2.42;;;;;;;;;;5072914;28;20294;-49
2024/04/07 11:05:43;;;;;;;2.63;1.38;;;;;;;;;;5074143;28;20759;-46
2024/04/07 11:08:10;;;;;;;1.55;1.45;;;;;;;;;;5068661;28;20754;-49
2024/04/07 11:10:37;;;;;;;2.50;2.10;;;;;;;;;;5078551;28;20218;-49
2024/04/07 11:13:03;;;;;;;36.83;33.25;;;;;;;;;;5068086;28;20195;-49
2024/04/07 11:15:29;;;;;;;23.90;21.35;;;;;;;;;;5073554;28;20758;-47
2024/04/07 11:17:55;;;;;;;20.23;18.13;;;;;;;;;;5064545;28;20220;-50
2024/04/07 11:20:22;;;;;;;25.77;23.02;;;;;;;;;;5068472;28;20691;-49
2024/04/07 11:22:47;;;;;;;15.93;14.32;;;;;;;;;;5073759;28;20196;-51
2024/04/07 11:25:15;;;;;;;14.68;13.15;;;;;;;;;;5055684;28;20694;-51
2024/04/07 11:27:42;;;;;;;5.35;4.80;;;;;;;;;;5032072;28;20219;-49
2024/04/07 11:30:10;;;;;;;5.00;4.50;;;;;;;;;;5066541;28;20739;-52
2024/04/07 11:32:36;;;;;;;3.78;3.25;;;;;;;;;;5065575;28;20231;-51
2024/04/07 11:35:03;;;;;;;2.10;1.60;;;;;;;;;;5057066;28;20196;-50
2024/04/07 11:37:30;;;;;;;5.95;3.85;;;;;;;;;;5067824;28;20306;-52
2024/04/07 11:39:57;;;;;;;7.32;6.20;;;;;;;;;;5066820;28;20203;-50
2024/04/07 11:42:25;;;;;;;2.42;1.90;;;;;;;;;;5061508;28;20231;-52
2024/04/07 11:44:52;;;;;;;2.13;1.48;;;;;;;;;;5058775;28;20593;-50
2024/04/07 11:47:18;;;;;;;2.10;1.30;;;;;;;;;;5058562;28;20198;-54
2024/04/07 11:49:45;;;;;;;2.38;1.40;;;;;;;;;;5068218;28;20741;-49
2024/04/07 11:52:12;;;;;;;2.85;2.65;;;;;;;;;;5048361;28;20207;-50
2024/04/07 11:54:39;;;;;;;4.13;3.63;;;;;;;;;;5067586;28;20699;-50
2024/04/07 11:57:06;;;;;;;1.67;1.58;;;;;;;;;;5028227;28;20711;-50
2024/04/07 11:59:33;;;;;;;1.92;1.15;;;;;;;;;;5061786;28;20287;-51
2024/04/07 12:02:00;;;;;;;2.47;2.28;;;;;;;;;;5067409;28;20210;-50
2024/04/07 12:04:26;;;;;;;7.32;6.63;;;;;;;;;;5072604;28;20249;-50
2024/04/07 12:06:54;;;;;;;3.28;2.97;;;;;;;;;;5067812;28;20286;-48
2024/04/07 12:09:21;;;;;;;1.67;1.50;;;;;;;;;;5073050;28;20210;-49
2024/04/07 12:11:49;;;;;;;1.13;1.00;;;;;;;;;;5072973;28;20199;-49
2024/04/07 12:14:15;;;;;;;1.92;1.83;;;;;;;;;;5073919;28;20216;-48
2024/04/07 12:16:44;;;;;;;0.75;0.75;;;;;;;;;;5044690;28;20757;-53
2024/04/07 12:19:11;;;;;;;2.50;1.65;;;;;;;;;;5061506;28;20187;-51
2024/04/07 12:21:39;;;;;;;13.80;12.82;;;;;;;;;;5070699;28;20688;-51
2024/04/07 12:24:05;;;;;;;4.53;4.13;;;;;;;;;;5067296;28;20199;-55
2024/04/07 12:26:32;;;;;;;8.93;8.30;;;;;;;;;;5029577;28;20742;-54
2024/04/07 12:28:58;;;;;;;11.43;10.45;;;;;;;;;;5072569;28;20718;-59
2024/04/07 12:31:25;;;;;;;1.52;1.42;;;;;;;;;;5075957;28;20195;-50
2024/04/07 12:33:53;;;;;;;1.23;1.10;;;;;;;;;;5057839;28;20200;-50
2024/04/07 12:36:20;;;;;;;0.88;0.85;;;;;;;;;;5066309;28;20199;-52
2024/04/07 12:38:47;;;;;;;1.52;0.80;;;;;;;;;;5014311;28;20602;-50
2024/04/07 12:41:14;;;;;;;0.80;0.80;;;;;;;;;;5032038;28;20280;-53
2024/04/07 12:43:39;;;;;;;0.82;0.60;;;;;;;;;;5056037;28;20225;-54
2024/04/07 12:46:06;;;;;;;0.73;0.73;;;;;;;;;;5065145;28;20676;-56
2024/04/07 12:48:35;;;;;;;0.70;0.70;;;;;;;;;;5067528;28;20589;-59
2024/04/07 12:51:04;;;;;;;0.82;0.60;;;;;;;;;;5067036;28;20291;-58
2024/04/07 12:53:29;;;;;;;1.45;0.60;;;;;;;;;;5027946;28;20195;-58
2024/04/07 12:55:56;;;;;;;0.70;0.70;;;;;;;;;;5063166;28;20199;-60
2024/04/07 12:58:22;;;;;;;0.73;0.63;;;;;;;;;;5066674;28;20261;-59
2024/04/07 13:00:49;;;;;;;0.90;0.80;;;;;;;;;;5066397;28;20205;-49
2024/04/07 13:03:16;;;;;;;0.80;0.70;;;;;;;;;;5066405;28;20281;-58
2024/04/07 13:05:42;;;;;;;1.15;0.73;;;;;;;;;;5059110;28;20347;-62
2024/04/07 13:08:09;;;;;;;0.93;0.60;;;;;;;;;;5059893;28;20847;-61
2024/04/07 13:10:37;;;;;;;1.17;0.60;;;;;;;;;;5066122;28;21077;-59
2024/04/07 13:13:03;;;;;;;1.00;0.82;;;;;;;;;;5066503;28;20195;-57
2024/04/07 13:15:30;;;;;;;0.70;0.70;;;;;;;;;;5059630;28;20199;-62
2024/04/07 13:17:55;;;;;;;0.75;0.63;;;;;;;;;;5062462;28;20309;-55
2024/04/07 13:20:22;;;;;;;0.80;0.80;;;;;;;;;;5065714;28;20265;-58
2024/04/07 13:22:48;;;;;;;1.02;0.70;;;;;;;;;;5065883;28;20227;-58
2024/04/07 13:25:16;;;;;;;1.60;0.80;;;;;;;;;;5049775;28;20231;-57
2024/04/07 13:27:44;;;;;;;0.60;0.60;;;;;;;;;;5035824;28;20223;-60
2024/04/07 13:30:11;;;;;;;0.80;0.70;;;;;;;;;;5064133;28;20229;-59
2024/04/07 13:32:37;;;;;;;1.10;0.70;;;;;;;;;;5065965;28;20202;-57
2024/04/07 13:35:05;;;;;;;1.52;0.60;;;;;;;;;;5066061;28;20195;-62
2024/04/07 13:37:30;;;;;;;1.67;0.60;;;;;;;;;;5061684;28;20218;-61
2024/04/07 13:39:58;;;;;;;1.73;0.80;;;;;;;;;;5062072;28;20198;-63
2024/04/07 13:42:25;;;;;;;0.50;0.50;;;;;;;;;;5066196;28;20230;-63
2024/04/07 13:44:51;;;;;;;0.50;0.50;;;;;;;;;;5065613;28;20202;-58
2024/04/07 13:47:18;;;;;;;0.47;0.47;;;;;;;;;;5052986;28;20579;-61
2024/04/07 13:49:45;;;;;;;0.70;0.70;;;;;;;;;;5060494;28;20214;-61
2024/04/07 13:52:11;;;;;;;1.45;0.60;;;;;;;;;;5056608;28;20195;-65
2024/04/07 13:54:38;;;;;;;1.17;0.85;;;;;;;;;;5065491;28;20256;-61
2024/04/07 13:57:05;;;;;;;3.05;0.63;;;;;;;;;;5065607;28;20207;-66
2024/04/07 13:59:33;;;;;;;0.77;0.73;;;;;;;;;;5065649;28;20203;-57
2024/04/07 14:01:59;;;;;;;0.80;0.60;;;;;;;;;;5025785;28;20245;-61
2024/04/07 14:04:26;;;;;;;1.17;0.70;;;;;;;;;;5063361;28;20199;-48
2024/04/07 14:06:52;;;;;;;0.73;0.60;;;;;;;;;;5070132;28;20659;-49
2024/04/07 14:09:19;;;;;;;0.70;0.60;;;;;;;;;;5060539;28;20205;-48
2024/04/07 14:11:46;;;;;;;1.10;0.50;;;;;;;;;;5060654;28;21042;-56
2024/04/07 14:14:12;;;;;;;1.38;1.15;;;;;;;;;;5065465;28;20218;-58
2024/04/07 14:16:42;;;;;;;1.00;0.60;;;;;;;;;;5055769;28;20203;-59
2024/04/07 14:19:09;;;;;;;1.33;0.60;;;;;;;;;;5066016;28;20234;-58
2024/04/07 14:21:35;;;;;;;0.85;0.82;;;;;;;;;;5070993;28;20209;-60
2024/04/07 14:24:03;;;;;;;0.68;0.60;;;;;;;;;;5071441;28;20206;-53
2024/04/07 14:26:29;;;;;;;1.63;0.80;;;;;;;;;;5075288;28;20202;-54
2024/04/07 14:28:55;;;;;;;1.05;0.63;;;;;;;;;;5055722;28;20316;-58
2024/04/07 14:31:21;;;;;;;0.70;0.70;;;;;;;;;;5052495;28;20286;-51
2024/04/07 14:33:49;;;;;;;0.40;0.40;;;;;;;;;;5060001;28;20270;-60
2024/04/07 14:36:15;;;;;;;0.52;0.52;;;;;;;;;;5057800;28;20280;-59
2024/04/07 14:38:42;;;;;;;3.03;0.77;;;;;;;;;;5028250;28;20230;-58
2024/04/07 14:41:08;;;;;;;1.15;0.80;;;;;;;;;;5024096;28;20214;-59